Terminal Aerodrome Forecast
Issued by NWS

Home | Current Version | Previous Version | Graphics & Text | Print | Product List | Glossary On
Versions: 1 2 3 4 5 6 7 8 9 10 11 12 13 14 15 16 17 18 19 20 21 22 23 24
000
FTUS43 KBIS 200500
TAFJMS
TAF
KJMS 200521Z 2006/2106 22004KT 1/4SM FZFG OVC002
      TEMPO 2006/2010 2SM BR OVC004
     FM201000 18003KT 1/4SM FZFG OVC001
     FM202000 17006KT 3SM BR BKN006
     FM202200 18006KT P6SM SCT010 BKN120=

USA.gov is the U.S. government's official web portal to all federal, state and local government web resources and services.